Time;durP1;ratioP1;P1;durP2;ratioP2;P2;SDS_P1;SDS_P2;PMS_P1;PMS_P2;Temp;Humidity;BMP_temperature;BMP_pressure;BME280_temperature;BME280_humidity;BME280_pressure;Samples;Min_cycle;Max_cycle;Signal;HPM_P1;HPM_P2
2023/04/19 00:01:27;;;;;;;18.58;10.98;;;;;;;;;;5046698;28;20304;-69
2023/04/19 00:03:53;;;;;;;15.10;10.30;;;;;;;;;;5047662;28;20200;-69
2023/04/19 00:06:19;;;;;;;14.57;10.18;;;;;;;;;;5041786;28;20182;-69
2023/04/19 00:08:45;;;;;;;15.18;10.50;;;;;;;;;;5042099;28;20190;-69
2023/04/19 00:11:10;;;;;;;15.55;10.07;;;;;;;;;;5042039;28;20194;-70
2023/04/19 00:13:36;;;;;;;14.13;10.10;;;;;;;;;;5044269;28;20269;-69
2023/04/19 00:16:01;;;;;;;14.88;10.70;;;;;;;;;;5046106;28;20287;-69
2023/04/19 00:18:26;;;;;;;16.05;9.75;;;;;;;;;;5038875;28;20206;-69
2023/04/19 00:20:52;;;;;;;13.02;9.75;;;;;;;;;;5041811;28;20264;-69
2023/04/19 00:23:17;;;;;;;15.50;9.55;;;;;;;;;;5047583;28;20510;-69
2023/04/19 00:25:45;;;;;;;14.25;9.68;;;;;;;;;;5033111;28;20197;-69
2023/04/19 00:28:10;;;;;;;14.73;9.75;;;;;;;;;;5046695;28;20602;-69
2023/04/19 00:30:35;;;;;;;16.13;10.13;;;;;;;;;;5043479;28;20284;-69
2023/04/19 00:33:01;;;;;;;13.05;9.63;;;;;;;;;;5043648;28;20193;-69
2023/04/19 00:35:26;;;;;;;14.65;9.70;;;;;;;;;;5043527;28;20213;-69
2023/04/19 00:37:52;;;;;;;17.58;10.77;;;;;;;;;;5036592;28;20216;-69
2023/04/19 00:40:17;;;;;;;13.98;9.90;;;;;;;;;;5033981;28;20269;-69
2023/04/19 00:42:43;;;;;;;16.08;9.90;;;;;;;;;;5045401;28;20189;-67
2023/04/19 00:45:08;;;;;;;14.95;9.93;;;;;;;;;;5043150;28;20454;-68
2023/04/19 00:47:34;;;;;;;15.10;9.52;;;;;;;;;;5035451;28;20189;-68
2023/04/19 00:50:01;;;;;;;15.55;9.88;;;;;;;;;;5045417;28;20193;-68
2023/04/19 00:52:27;;;;;;;13.23;9.05;;;;;;;;;;5046033;28;20234;-69
2023/04/19 00:54:53;;;;;;;14.93;9.15;;;;;;;;;;5045668;28;20192;-69
2023/04/19 00:57:19;;;;;;;15.65;9.68;;;;;;;;;;5037329;28;20208;-68
2023/04/19 00:59:45;;;;;;;14.50;8.75;;;;;;;;;;5050636;28;20775;-68
2023/04/19 01:02:10;;;;;;;12.48;9.10;;;;;;;;;;5042759;28;20193;-68
2023/04/19 01:04:35;;;;;;;14.98;10.05;;;;;;;;;;5047188;28;20676;-68
2023/04/19 01:07:04;;;;;;;17.35;9.73;;;;;;;;;;5050167;28;20223;-68
2023/04/19 01:09:30;;;;;;;13.60;8.98;;;;;;;;;;5051406;28;20197;-68
2023/04/19 01:11:55;;;;;;;13.57;9.07;;;;;;;;;;5046223;28;20268;-68
2023/04/19 01:14:21;;;;;;;17.92;9.30;;;;;;;;;;5056601;28;20524;-69
2023/04/19 01:16:46;;;;;;;14.63;9.48;;;;;;;;;;5049282;28;20198;-69
2023/04/19 01:19:12;;;;;;;11.98;8.85;;;;;;;;;;5057576;28;20323;-69
2023/04/19 01:21:38;;;;;;;13.95;9.07;;;;;;;;;;5055680;28;20662;-69
2023/04/19 01:24:04;;;;;;;13.25;8.77;;;;;;;;;;5044942;28;20182;-69
2023/04/19 01:26:30;;;;;;;12.52;8.63;;;;;;;;;;5051406;28;20201;-69
2023/04/19 01:28:55;;;;;;;19.73;9.18;;;;;;;;;;5050302;28;20208;-69
2023/04/19 01:31:21;;;;;;;12.45;8.75;;;;;;;;;;5041412;28;20645;-69
2023/04/19 01:33:46;;;;;;;15.15;9.40;;;;;;;;;;5029014;28;20236;-69
2023/04/19 01:36:12;;;;;;;13.65;9.50;;;;;;;;;;5050846;28;20323;-69
2023/04/19 01:38:37;;;;;;;14.90;9.25;;;;;;;;;;5050739;28;20266;-69
2023/04/19 01:41:02;;;;;;;15.70;9.35;;;;;;;;;;5049713;28;20192;-69
2023/04/19 01:43:28;;;;;;;17.38;8.48;;;;;;;;;;5042374;28;20293;-69
2023/04/19 01:45:53;;;;;;;12.88;8.07;;;;;;;;;;5047229;28;20296;-69
2023/04/19 01:48:19;;;;;;;12.52;7.97;;;;;;;;;;5038114;28;20177;-69
2023/04/19 01:50:44;;;;;;;13.85;8.70;;;;;;;;;;5045085;28;20249;-69
2023/04/19 01:53:09;;;;;;;11.05;7.28;;;;;;;;;;5045422;28;20200;-69
2023/04/19 01:55:35;;;;;;;12.13;7.45;;;;;;;;;;5040658;28;20606;-69
2023/04/19 01:58:00;;;;;;;10.80;7.35;;;;;;;;;;5052669;28;20209;-69
2023/04/19 02:00:25;;;;;;;12.98;7.70;;;;;;;;;;5045800;28;20201;-69
2023/04/19 02:02:51;;;;;;;9.68;7.25;;;;;;;;;;5058140;28;20211;-69
2023/04/19 02:05:16;;;;;;;11.13;7.20;;;;;;;;;;5047501;28;20189;-69
2023/04/19 02:07:42;;;;;;;8.57;6.55;;;;;;;;;;5041487;28;20221;-69
2023/04/19 02:10:10;;;;;;;9.07;6.47;;;;;;;;;;5046097;28;20205;-69
2023/04/19 02:12:36;;;;;;;12.02;6.90;;;;;;;;;;5048861;28;20209;-69
2023/04/19 02:15:02;;;;;;;10.18;6.95;;;;;;;;;;5047495;28;20221;-69
2023/04/19 02:17:27;;;;;;;8.90;5.63;;;;;;;;;;5056928;28;20729;-70
2023/04/19 02:19:53;;;;;;;9.23;5.82;;;;;;;;;;5046580;28;20225;-70
2023/04/19 02:22:18;;;;;;;9.13;6.10;;;;;;;;;;5051233;28;20193;-69
2023/04/19 02:24:44;;;;;;;8.05;6.03;;;;;;;;;;5048021;28;20288;-70
2023/04/19 02:27:10;;;;;;;7.60;5.70;;;;;;;;;;5047040;28;20190;-69
2023/04/19 02:29:36;;;;;;;9.90;6.45;;;;;;;;;;5049586;28;20197;-70
2023/04/19 02:32:04;;;;;;;7.97;5.75;;;;;;;;;;5042613;28;20605;-69
2023/04/19 02:34:31;;;;;;;8.82;6.82;;;;;;;;;;5047664;28;20641;-69
2023/04/19 02:36:56;;;;;;;9.88;6.00;;;;;;;;;;5044507;28;20561;-69
2023/04/19 02:39:22;;;;;;;8.68;6.25;;;;;;;;;;5041781;28;20361;-69
2023/04/19 02:41:48;;;;;;;9.90;6.30;;;;;;;;;;5034534;28;20182;-69
2023/04/19 02:44:13;;;;;;;8.32;5.78;;;;;;;;;;5036066;28;20721;-70
2023/04/19 02:46:38;;;;;;;9.05;6.00;;;;;;;;;;5045989;28;20590;-69
2023/04/19 02:49:04;;;;;;;10.27;6.10;;;;;;;;;;5041923;28;20173;-69
2023/04/19 02:51:29;;;;;;;9.80;6.43;;;;;;;;;;5048857;28;20234;-69
2023/04/19 02:53:55;;;;;;;8.07;6.00;;;;;;;;;;5049465;28;20227;-69
2023/04/19 02:56:20;;;;;;;11.20;6.30;;;;;;;;;;5038113;28;20284;-69
2023/04/19 02:58:46;;;;;;;10.50;6.72;;;;;;;;;;5033229;28;20529;-69
2023/04/19 03:01:11;;;;;;;11.68;6.88;;;;;;;;;;5044284;28;20217;-69
2023/04/19 03:03:36;;;;;;;9.23;5.97;;;;;;;;;;5044405;28;20194;-70
2023/04/19 03:06:02;;;;;;;10.60;6.32;;;;;;;;;;5047904;28;20181;-69
2023/04/19 03:08:28;;;;;;;14.60;6.22;;;;;;;;;;5048624;28;20591;-69
2023/04/19 03:10:53;;;;;;;9.63;6.13;;;;;;;;;;5048087;28;20629;-69
2023/04/19 03:13:19;;;;;;;11.77;6.70;;;;;;;;;;5043208;28;20188;-69
2023/04/19 03:15:44;;;;;;;8.55;5.90;;;;;;;;;;5046948;28;20537;-69
2023/04/19 03:18:09;;;;;;;11.25;6.20;;;;;;;;;;5045548;28;20209;-69
2023/04/19 03:20:35;;;;;;;7.57;5.47;;;;;;;;;;5043915;28;20193;-69
2023/04/19 03:23:01;;;;;;;9.27;6.80;;;;;;;;;;5044906;28;20201;-69
2023/04/19 03:25:26;;;;;;;9.50;5.70;;;;;;;;;;5044968;28;20580;-70
2023/04/19 03:27:52;;;;;;;8.75;5.95;;;;;;;;;;5041476;28;20530;-68
2023/04/19 03:30:17;;;;;;;9.32;6.03;;;;;;;;;;5044957;28;20264;-68
2023/04/19 03:32:43;;;;;;;8.75;5.43;;;;;;;;;;5048435;28;20616;-70
2023/04/19 03:35:08;;;;;;;10.68;6.13;;;;;;;;;;5041546;28;20189;-68
2023/04/19 03:37:34;;;;;;;9.43;5.72;;;;;;;;;;5048987;28;20189;-68
2023/04/19 03:40:00;;;;;;;10.18;5.93;;;;;;;;;;5047452;28;20243;-68
2023/04/19 03:42:25;;;;;;;7.88;6.05;;;;;;;;;;5043397;28;20214;-68
2023/04/19 03:44:50;;;;;;;8.70;5.85;;;;;;;;;;5045995;28;20241;-69
2023/04/19 03:47:16;;;;;;;8.05;5.35;;;;;;;;;;5046045;28;20182;-69
2023/04/19 03:49:41;;;;;;;10.25;5.85;;;;;;;;;;5043666;28;20273;-69
2023/04/19 03:52:07;;;;;;;8.38;5.85;;;;;;;;;;5032846;28;20239;-69
2023/04/19 03:54:32;;;;;;;10.80;5.32;;;;;;;;;;5049694;28;20387;-71
2023/04/19 03:56:58;;;;;;;7.88;5.55;;;;;;;;;;5046558;28;20225;-68
2023/04/19 03:59:23;;;;;;;13.27;5.78;;;;;;;;;;5045537;28;20343;-68
2023/04/19 04:01:49;;;;;;;8.43;5.43;;;;;;;;;;5047717;28;20280;-68
2023/04/19 04:04:14;;;;;;;8.15;5.30;;;;;;;;;;5047043;28;20201;-69
2023/04/19 04:06:40;;;;;;;8.75;5.47;;;;;;;;;;5045671;28;20185;-68
2023/04/19 04:09:06;;;;;;;9.38;5.25;;;;;;;;;;5055478;28;20585;-68
2023/04/19 04:11:31;;;;;;;6.35;4.80;;;;;;;;;;5033017;28;20250;-69
2023/04/19 04:13:57;;;;;;;8.75;5.38;;;;;;;;;;5045674;28;20189;-70
2023/04/19 04:16:22;;;;;;;7.88;4.97;;;;;;;;;;5045677;28;20185;-68
2023/04/19 04:18:48;;;;;;;9.52;5.07;;;;;;;;;;5043592;28;20336;-68
2023/04/19 04:21:13;;;;;;;7.00;4.70;;;;;;;;;;5035252;28;20219;-68
2023/04/19 04:23:38;;;;;;;6.07;4.97;;;;;;;;;;5046606;28;20190;-68
2023/04/19 04:26:05;;;;;;;7.00;4.43;;;;;;;;;;5046463;28;20205;-69
2023/04/19 04:28:30;;;;;;;7.35;4.35;;;;;;;;;;5043278;28;20182;-69
2023/04/19 04:30:56;;;;;;;8.57;4.20;;;;;;;;;;5045102;28;20235;-68
2023/04/19 04:33:26;;;;;;;7.40;4.40;;;;;;;;;;5044027;28;20203;-70
2023/04/19 04:35:52;;;;;;;6.38;3.95;;;;;;;;;;5041017;28;20189;-68
2023/04/19 04:38:19;;;;;;;7.50;3.83;;;;;;;;;;5036785;28;20210;-68
2023/04/19 04:40:54;;;;;;;10.70;3.50;;;;;;;;;;5035157;28;20187;-68
2023/04/19 04:43:24;;;;;;;7.07;3.83;;;;;;;;;;5041719;28;20628;-68
2023/04/19 04:45:50;;;;;;;6.82;3.60;;;;;;;;;;5038263;28;20673;-68
2023/04/19 04:48:16;;;;;;;6.13;3.83;;;;;;;;;;5043349;28;20215;-68
2023/04/19 04:50:41;;;;;;;7.32;3.63;;;;;;;;;;5037193;28;20193;-68
2023/04/19 04:53:07;;;;;;;6.85;3.90;;;;;;;;;;5032243;28;20190;-68
2023/04/19 04:55:33;;;;;;;7.78;4.22;;;;;;;;;;5038462;28;20197;-69
2023/04/19 04:57:59;;;;;;;10.10;3.80;;;;;;;;;;5033490;28;20194;-68
2023/04/19 05:00:24;;;;;;;5.20;3.80;;;;;;;;;;5040603;28;20274;-67
2023/04/19 05:02:50;;;;;;;7.88;3.60;;;;;;;;;;5038633;28;20449;-68
2023/04/19 05:05:15;;;;;;;6.63;3.50;;;;;;;;;;5041337;28;20277;-67
2023/04/19 05:07:41;;;;;;;5.75;3.50;;;;;;;;;;5042517;28;20204;-67
2023/04/19 05:10:07;;;;;;;6.30;3.60;;;;;;;;;;5034973;28;20216;-67
2023/04/19 05:12:33;;;;;;;4.60;3.23;;;;;;;;;;5035957;28;20205;-68
2023/04/19 05:14:58;;;;;;;10.43;3.73;;;;;;;;;;5041136;28;20202;-67
2023/04/19 05:17:23;;;;;;;7.15;3.40;;;;;;;;;;5028262;28;20240;-67
2023/04/19 05:19:49;;;;;;;5.50;3.00;;;;;;;;;;5043363;28;20213;-69
2023/04/19 05:22:15;;;;;;;5.65;3.42;;;;;;;;;;5046894;28;20186;-68
2023/04/19 05:24:41;;;;;;;4.68;2.88;;;;;;;;;;5046112;28;20204;-68
2023/04/19 05:27:06;;;;;;;6.40;3.00;;;;;;;;;;5046138;28;20193;-68
2023/04/19 05:29:32;;;;;;;10.38;3.40;;;;;;;;;;5043926;28;20185;-68
2023/04/19 05:31:57;;;;;;;5.72;3.08;;;;;;;;;;5036892;28;20625;-68
2023/04/19 05:34:23;;;;;;;5.43;3.10;;;;;;;;;;5037291;28;20190;-69
2023/04/19 05:36:48;;;;;;;4.63;3.22;;;;;;;;;;5033223;28;20186;-67
2023/04/19 05:39:14;;;;;;;5.07;3.10;;;;;;;;;;5041661;28;20695;-69
2023/04/19 05:41:39;;;;;;;6.10;3.42;;;;;;;;;;5041232;28;20178;-69
2023/04/19 05:44:05;;;;;;;4.82;2.80;;;;;;;;;;5042612;28;20229;-69
2023/04/19 05:46:30;;;;;;;10.43;3.30;;;;;;;;;;5040249;28;20196;-68
2023/04/19 05:48:56;;;;;;;6.63;3.35;;;;;;;;;;5036081;28;20240;-68
2023/04/19 05:51:21;;;;;;;7.65;2.97;;;;;;;;;;5036274;28;20182;-68
2023/04/19 05:53:47;;;;;;;6.22;2.83;;;;;;;;;;5038233;28;20217;-68
2023/04/19 05:56:12;;;;;;;6.53;3.05;;;;;;;;;;5035986;28;20228;-69
2023/04/19 05:58:37;;;;;;;4.60;2.75;;;;;;;;;;5038885;28;20205;-68
2023/04/19 06:01:03;;;;;;;5.20;2.65;;;;;;;;;;5051582;28;20216;-70
2023/04/19 06:03:29;;;;;;;4.50;2.72;;;;;;;;;;5042295;28;20190;-68
2023/04/19 06:05:54;;;;;;;5.88;3.22;;;;;;;;;;5043367;28;20550;-67
2023/04/19 06:08:20;;;;;;;5.43;3.33;;;;;;;;;;5049600;28;20193;-67
2023/04/19 06:10:48;;;;;;;4.88;2.85;;;;;;;;;;5046848;28;20193;-67
2023/04/19 06:13:13;;;;;;;4.68;3.03;;;;;;;;;;5036473;28;20190;-67
2023/04/19 06:15:39;;;;;;;5.15;2.97;;;;;;;;;;5039351;28;20260;-68
2023/04/19 06:18:08;;;;;;;5.32;3.15;;;;;;;;;;5042988;28;20197;-67
2023/04/19 06:20:35;;;;;;;5.90;2.85;;;;;;;;;;5036864;28;20186;-68
2023/04/19 06:23:00;;;;;;;6.88;2.95;;;;;;;;;;5042097;28;20208;-67
2023/04/19 06:25:26;;;;;;;5.55;2.90;;;;;;;;;;5033608;28;20224;-67
2023/04/19 06:27:51;;;;;;;4.07;2.53;;;;;;;;;;5047156;28;20616;-68
2023/04/19 06:30:16;;;;;;;8.00;3.22;;;;;;;;;;5040626;28;20360;-67
2023/04/19 06:32:42;;;;;;;5.63;2.92;;;;;;;;;;5037949;28;20193;-67
2023/04/19 06:35:08;;;;;;;6.00;2.65;;;;;;;;;;5043269;28;20496;-67
2023/04/19 06:37:33;;;;;;;5.60;2.65;;;;;;;;;;5045134;28;20193;-68
2023/04/19 06:39:59;;;;;;;4.43;2.58;;;;;;;;;;5055344;28;20214;-68
2023/04/19 06:42:26;;;;;;;5.28;2.55;;;;;;;;;;5046592;28;20605;-68
2023/04/19 06:44:52;;;;;;;4.55;2.67;;;;;;;;;;5040814;28;20234;-68
2023/04/19 06:47:17;;;;;;;6.07;2.72;;;;;;;;;;5049459;28;20176;-69
2023/04/19 06:49:43;;;;;;;4.85;2.15;;;;;;;;;;5045180;28;20272;-68
2023/04/19 06:52:08;;;;;;;3.83;2.42;;;;;;;;;;5046059;28;20178;-68
2023/04/19 06:54:34;;;;;;;5.65;2.42;;;;;;;;;;5042854;28;20186;-69
2023/04/19 06:57:01;;;;;;;4.47;2.50;;;;;;;;;;5052622;28;20185;-69
2023/04/19 06:59:27;;;;;;;2.50;2.17;;;;;;;;;;5046549;28;20517;-68
2023/04/19 07:01:52;;;;;;;5.22;2.42;;;;;;;;;;5042350;28;20216;-68
2023/04/19 07:04:18;;;;;;;4.70;2.05;;;;;;;;;;5028853;28;20193;-68
2023/04/19 07:06:48;;;;;;;4.78;2.33;;;;;;;;;;5041412;28;20560;-67
2023/04/19 07:09:14;;;;;;;4.43;1.83;;;;;;;;;;5028074;28;20466;-69
2023/04/19 07:11:39;;;;;;;4.00;2.50;;;;;;;;;;5040666;28;20645;-67
2023/04/19 07:14:05;;;;;;;4.68;2.80;;;;;;;;;;5047518;28;20189;-68
2023/04/19 07:16:31;;;;;;;4.65;2.20;;;;;;;;;;5046350;28;20285;-68
2023/04/19 07:18:56;;;;;;;4.55;2.50;;;;;;;;;;5047942;28;20285;-68
2023/04/19 07:21:24;;;;;;;3.58;2.38;;;;;;;;;;5045376;28;20635;-68
2023/04/19 07:23:49;;;;;;;3.63;1.67;;;;;;;;;;5047425;28;20190;-68
2023/04/19 07:26:14;;;;;;;5.30;2.40;;;;;;;;;;5030553;28;20200;-67
2023/04/19 07:28:40;;;;;;;4.18;1.77;;;;;;;;;;5029124;28;20170;-67
2023/04/19 07:31:05;;;;;;;3.70;1.73;;;;;;;;;;5045629;28;20201;-69
2023/04/19 07:33:31;;;;;;;3.60;1.80;;;;;;;;;;5043365;28;20192;-68
2023/04/19 07:35:56;;;;;;;6.00;1.85;;;;;;;;;;5034289;28;20244;-68
2023/04/19 07:38:22;;;;;;;4.03;2.08;;;;;;;;;;5048566;28;20597;-68
2023/04/19 07:40:47;;;;;;;4.15;2.03;;;;;;;;;;5034026;28;20189;-68
2023/04/19 07:43:13;;;;;;;5.00;1.83;;;;;;;;;;5048680;28;20264;-68
2023/04/19 07:45:39;;;;;;;5.80;2.03;;;;;;;;;;5034625;28;20185;-67
2023/04/19 07:48:04;;;;;;;3.55;1.98;;;;;;;;;;5044464;28;20223;-67
2023/04/19 07:50:30;;;;;;;2.50;1.70;;;;;;;;;;5034737;28;20217;-71
2023/04/19 07:52:55;;;;;;;3.30;1.95;;;;;;;;;;5039912;28;20193;-67
2023/04/19 07:55:21;;;;;;;2.47;1.52;;;;;;;;;;5039561;28;20263;-67
2023/04/19 07:57:49;;;;;;;4.22;1.67;;;;;;;;;;5030916;28;20193;-68
2023/04/19 08:00:20;;;;;;;2.25;1.75;;;;;;;;;;5051416;28;20241;-68
2023/04/19 08:02:46;;;;;;;4.78;1.70;;;;;;;;;;5046457;28;20686;-68
2023/04/19 08:05:13;;;;;;;3.78;1.92;;;;;;;;;;5048735;28;20189;-68
2023/04/19 08:07:39;;;;;;;3.75;1.52;;;;;;;;;;5048278;28;20235;-68
2023/04/19 08:10:06;;;;;;;5.90;1.50;;;;;;;;;;5047043;28;20566;-69
2023/04/19 08:12:31;;;;;;;2.80;1.42;;;;;;;;;;5042274;28;20315;-67
2023/04/19 08:14:57;;;;;;;2.10;1.30;;;;;;;;;;5040116;28;20276;-68
2023/04/19 08:17:23;;;;;;;2.63;1.45;;;;;;;;;;5041356;28;20189;-68
2023/04/19 08:19:49;;;;;;;2.13;1.65;;;;;;;;;;5027504;28;20236;-68
2023/04/19 08:22:16;;;;;;;3.08;1.33;;;;;;;;;;5038929;28;20185;-68
2023/04/19 08:24:41;;;;;;;2.65;1.30;;;;;;;;;;5030843;28;20197;-68
2023/04/19 08:27:08;;;;;;;2.00;1.48;;;;;;;;;;5043983;28;20190;-67
2023/04/19 08:29:33;;;;;;;2.72;1.50;;;;;;;;;;5037895;28;20185;-68
2023/04/19 08:32:00;;;;;;;2.08;1.60;;;;;;;;;;5039877;28;20251;-68
2023/04/19 08:34:26;;;;;;;2.53;1.73;;;;;;;;;;5031247;28;20196;-69
2023/04/19 08:36:51;;;;;;;2.10;1.63;;;;;;;;;;5040946;28;20264;-67
2023/04/19 08:39:17;;;;;;;1.85;1.00;;;;;;;;;;5028912;28;20239;-68
2023/04/19 08:41:43;;;;;;;1.83;0.82;;;;;;;;;;5035928;28;20186;-68
2023/04/19 08:44:11;;;;;;;2.63;0.90;;;;;;;;;;5045319;28;20561;-67
2023/04/19 08:46:36;;;;;;;2.53;1.05;;;;;;;;;;5042930;28;20239;-67
2023/04/19 08:49:04;;;;;;;2.45;1.20;;;;;;;;;;5033970;28;20197;-67
2023/04/19 08:51:31;;;;;;;2.38;1.08;;;;;;;;;;5038343;28;20186;-68
2023/04/19 08:53:58;;;;;;;2.65;0.90;;;;;;;;;;5031583;28;20194;-67
2023/04/19 08:56:23;;;;;;;2.03;1.42;;;;;;;;;;5039582;28;20267;-68
2023/04/19 08:58:49;;;;;;;2.85;1.40;;;;;;;;;;5044101;28;20716;-68
2023/04/19 09:01:14;;;;;;;2.42;1.40;;;;;;;;;;5040038;28;20582;-68
2023/04/19 09:03:45;;;;;;;2.88;1.40;;;;;;;;;;5032185;28;20201;-69
2023/04/19 09:06:13;;;;;;;2.42;1.30;;;;;;;;;;5037393;28;20212;-69
2023/04/19 09:08:40;;;;;;;2.88;1.92;;;;;;;;;;5045172;28;20183;-68
2023/04/19 09:11:05;;;;;;;2.47;1.50;;;;;;;;;;5036566;28;20726;-68
2023/04/19 09:13:32;;;;;;;5.65;1.80;;;;;;;;;;5029614;28;20197;-67
2023/04/19 09:15:59;;;;;;;2.67;1.40;;;;;;;;;;5032243;28;20189;-69
2023/04/19 09:18:25;;;;;;;4.57;2.10;;;;;;;;;;5029924;28;20197;-69
2023/04/19 09:20:56;;;;;;;4.32;1.70;;;;;;;;;;5028327;28;20487;-67
2023/04/19 09:23:24;;;;;;;4.60;1.50;;;;;;;;;;5042763;28;20189;-69
2023/04/19 09:26:01;;;;;;;4.82;1.80;;;;;;;;;;5040727;28;20184;-67
2023/04/19 09:28:27;;;;;;;3.03;1.27;;;;;;;;;;5047529;28;20279;-71
2023/04/19 09:30:54;;;;;;;2.80;1.35;;;;;;;;;;5036505;28;20177;-68
2023/04/19 09:33:39;;;;;;;7.80;2.17;;;;;;;;;;5033527;28;20636;-68
2023/04/19 09:36:06;;;;;;;3.00;1.77;;;;;;;;;;5034123;28;20505;-69
2023/04/19 09:38:47;;;;;;;4.35;1.73;;;;;;;;;;5036031;28;20232;-68
2023/04/19 09:41:13;;;;;;;3.75;1.60;;;;;;;;;;5031479;28;20182;-67
2023/04/19 09:43:38;;;;;;;5.53;2.15;;;;;;;;;;5032679;28;20238;-70
2023/04/19 09:46:03;;;;;;;6.70;1.83;;;;;;;;;;5038966;28;20662;-68
2023/04/19 09:48:29;;;;;;;5.47;1.63;;;;;;;;;;5031150;28;20194;-68
2023/04/19 09:50:57;;;;;;;5.53;1.60;;;;;;;;;;5037385;28;20225;-68
2023/04/19 09:53:23;;;;;;;4.80;1.80;;;;;;;;;;5045475;28;20194;-68
2023/04/19 09:55:48;;;;;;;3.72;1.88;;;;;;;;;;5048427;28;20897;-71
2023/04/19 09:58:15;;;;;;;4.47;2.00;;;;;;;;;;5041423;28;20182;-68
2023/04/19 10:00:42;;;;;;;5.45;2.45;;;;;;;;;;5035725;28;20206;-68
2023/04/19 10:03:09;;;;;;;3.75;1.80;;;;;;;;;;5037268;28;20267;-68
2023/04/19 10:05:39;;;;;;;4.95;2.20;;;;;;;;;;5038080;28;20193;-71
2023/04/19 10:08:07;;;;;;;3.03;1.95;;;;;;;;;;5044749;28;20189;-70
2023/04/19 10:10:32;;;;;;;6.15;2.30;;;;;;;;;;5031312;28;20617;-69
2023/04/19 10:12:59;;;;;;;8.23;1.88;;;;;;;;;;5039261;28;20194;-69
2023/04/19 10:15:26;;;;;;;4.43;1.88;;;;;;;;;;5040685;28;20193;-70
2023/04/19 10:17:51;;;;;;;3.85;1.98;;;;;;;;;;5048435;28;20648;-68
2023/04/19 10:20:31;;;;;;;4.40;1.75;;;;;;;;;;5045638;28;20660;-70
2023/04/19 10:22:58;;;;;;;2.88;1.50;;;;;;;;;;5041339;28;20201;-70
2023/04/19 10:25:29;;;;;;;6.97;1.70;;;;;;;;;;5037063;28;20784;-69
2023/04/19 10:27:56;;;;;;;6.63;2.20;;;;;;;;;;5036534;28;20202;-69
2023/04/19 10:30:23;;;;;;;4.60;2.10;;;;;;;;;;5041629;28;20178;-69
2023/04/19 10:32:56;;;;;;;4.25;1.92;;;;;;;;;;5039562;28;20288;-70
2023/04/19 10:35:24;;;;;;;2.85;1.98;;;;;;;;;;5034179;28;20221;-68
2023/04/19 10:38:12;;;;;;;4.10;2.00;;;;;;;;;;5041155;28;20729;-70
2023/04/19 10:40:59;;;;;;;3.03;1.80;;;;;;;;;;5038781;28;20200;-69
2023/04/19 10:43:29;;;;;;;4.82;2.20;;;;;;;;;;5040211;28;20201;-69
2023/04/19 10:46:00;;;;;;;7.15;2.10;;;;;;;;;;5038916;28;20648;-68
2023/04/19 10:48:26;;;;;;;3.58;2.50;;;;;;;;;;5037150;28;20190;-69
2023/04/19 10:51:09;;;;;;;4.18;2.08;;;;;;;;;;5040425;28;20192;-70
2023/04/19 10:53:45;;;;;;;3.33;2.30;;;;;;;;;;5040019;28;20173;-69
2023/04/19 10:56:10;;;;;;;2.88;1.85;;;;;;;;;;5032551;28;20192;-69
2023/04/19 10:59:01;;;;;;;4.20;2.22;;;;;;;;;;5040044;28;20209;-69
2023/04/19 11:01:34;;;;;;;7.13;2.60;;;;;;;;;;5038377;28;20751;-68
2023/04/19 11:03:59;;;;;;;4.47;2.30;;;;;;;;;;5032998;28;20181;-69
2023/04/19 11:06:26;;;;;;;2.95;1.95;;;;;;;;;;5044954;28;20178;-69
2023/04/19 11:08:53;;;;;;;5.95;2.13;;;;;;;;;;5048504;28;20185;-69
2023/04/19 11:11:20;;;;;;;2.50;1.80;;;;;;;;;;5046673;28;20197;-71
2023/04/19 11:13:48;;;;;;;4.97;2.25;;;;;;;;;;5048702;28;20216;-70
2023/04/19 11:16:13;;;;;;;5.05;2.20;;;;;;;;;;5038318;28;20200;-69
2023/04/19 11:18:39;;;;;;;2.83;1.73;;;;;;;;;;5043276;28;20201;-69
2023/04/19 11:21:04;;;;;;;3.45;2.08;;;;;;;;;;5038306;28;20273;-70
2023/04/19 11:23:30;;;;;;;2.25;1.73;;;;;;;;;;5039914;28;20248;-70
2023/04/19 11:25:55;;;;;;;5.30;2.03;;;;;;;;;;5044313;28;20209;-71
2023/04/19 11:28:21;;;;;;;2.45;1.88;;;;;;;;;;5042511;28;20626;-69
2023/04/19 11:30:48;;;;;;;3.80;1.70;;;;;;;;;;5041485;28;20482;-69
2023/04/19 11:33:13;;;;;;;2.97;1.80;;;;;;;;;;5042221;28;20695;-69
2023/04/19 11:35:40;;;;;;;2.90;1.52;;;;;;;;;;5048981;28;20203;-69
2023/04/19 11:38:06;;;;;;;3.60;1.73;;;;;;;;;;5047850;28;20189;-69
2023/04/19 11:40:32;;;;;;;4.95;1.70;;;;;;;;;;5047863;28;20223;-69
2023/04/19 11:43:02;;;;;;;4.93;1.70;;;;;;;;;;5046933;28;20609;-69
2023/04/19 11:45:36;;;;;;;4.95;1.80;;;;;;;;;;5048553;28;20214;-68
2023/04/19 11:48:06;;;;;;;4.18;1.83;;;;;;;;;;5038418;28;20223;-70
2023/04/19 11:50:37;;;;;;;5.47;1.88;;;;;;;;;;5033834;28;20194;-69
2023/04/19 11:53:21;;;;;;;4.20;2.28;;;;;;;;;;5034152;28;20311;-70
2023/04/19 11:55:50;;;;;;;6.63;1.80;;;;;;;;;;5043058;28;20232;-69
2023/04/19 11:58:38;;;;;;;2.45;1.48;;;;;;;;;;5045334;28;20212;-69
2023/04/19 12:01:12;;;;;;;4.10;1.70;;;;;;;;;;5043696;28;20224;-69
2023/04/19 12:03:45;;;;;;;2.10;1.38;;;;;;;;;;5043786;28;20181;-69
2023/04/19 12:06:13;;;;;;;3.55;2.03;;;;;;;;;;5044633;28;20189;-69
2023/04/19 12:08:43;;;;;;;5.35;1.55;;;;;;;;;;5046275;28;20634;-71
2023/04/19 12:11:08;;;;;;;2.10;1.90;;;;;;;;;;5044578;28;20182;-70
2023/04/19 12:13:35;;;;;;;3.00;1.95;;;;;;;;;;5043742;28;20186;-70
2023/04/19 12:16:01;;;;;;;6.50;1.70;;;;;;;;;;5046059;28;20209;-70
2023/04/19 12:18:26;;;;;;;2.53;1.77;;;;;;;;;;5045164;28;20245;-69
2023/04/19 12:20:52;;;;;;;4.18;1.88;;;;;;;;;;5044213;28;20192;-69
2023/04/19 12:23:19;;;;;;;3.92;1.60;;;;;;;;;;5044514;28;20193;-69
2023/04/19 12:25:47;;;;;;;3.22;1.70;;;;;;;;;;5044350;28;20517;-69
2023/04/19 12:28:14;;;;;;;6.25;1.67;;;;;;;;;;5044531;28;20190;-69
2023/04/19 12:30:40;;;;;;;5.00;1.95;;;;;;;;;;5043869;28;20196;-73
2023/04/19 12:33:06;;;;;;;4.78;1.70;;;;;;;;;;5045082;28;20197;-70
2023/04/19 12:35:32;;;;;;;3.35;2.08;;;;;;;;;;5044775;28;20609;-69
2023/04/19 12:37:58;;;;;;;2.38;1.98;;;;;;;;;;5046106;28;20185;-69
2023/04/19 12:40:25;;;;;;;2.22;1.80;;;;;;;;;;5043825;28;20701;-71
2023/04/19 12:42:51;;;;;;;3.00;2.08;;;;;;;;;;5044192;28;20201;-69
2023/04/19 12:45:18;;;;;;;5.18;2.10;;;;;;;;;;5044514;28;20225;-69
2023/04/19 12:47:48;;;;;;;2.60;1.80;;;;;;;;;;5041423;28;20648;-70
2023/04/19 12:50:14;;;;;;;4.03;2.08;;;;;;;;;;5045348;28;20181;-69
2023/04/19 12:52:41;;;;;;;3.22;2.13;;;;;;;;;;5044564;28;20220;-69
2023/04/19 12:55:07;;;;;;;6.97;2.40;;;;;;;;;;5044044;28;20264;-69
2023/04/19 12:57:32;;;;;;;3.50;1.90;;;;;;;;;;5043495;28;20942;-70
2023/04/19 12:59:58;;;;;;;3.05;2.42;;;;;;;;;;5044108;28;20289;-69
2023/04/19 13:02:23;;;;;;;4.20;1.98;;;;;;;;;;5041536;28;20182;-71
2023/04/19 13:04:49;;;;;;;5.97;2.20;;;;;;;;;;5044645;28;20189;-68
2023/04/19 13:07:15;;;;;;;3.00;2.30;;;;;;;;;;5044712;28;20628;-70
2023/04/19 13:09:40;;;;;;;6.40;2.40;;;;;;;;;;5043908;28;20566;-69
2023/04/19 13:12:06;;;;;;;3.92;2.10;;;;;;;;;;5044305;28;20201;-69
2023/04/19 13:14:31;;;;;;;4.40;2.28;;;;;;;;;;5043858;28;20599;-68
2023/04/19 13:16:56;;;;;;;6.97;2.72;;;;;;;;;;5043901;28;20200;-70
2023/04/19 13:19:22;;;;;;;3.08;2.05;;;;;;;;;;5043654;28;20603;-69
2023/04/19 13:21:47;;;;;;;3.30;1.67;;;;;;;;;;5042232;28;20201;-69
2023/04/19 13:24:13;;;;;;;3.92;2.30;;;;;;;;;;5044052;28;20193;-70
2023/04/19 13:26:38;;;;;;;4.43;1.90;;;;;;;;;;5043189;28;20231;-71
2023/04/19 13:29:04;;;;;;;3.60;2.17;;;;;;;;;;5044646;28;20197;-70
2023/04/19 13:31:29;;;;;;;4.47;2.30;;;;;;;;;;5044048;28;20231;-70
2023/04/19 13:33:55;;;;;;;2.50;2.03;;;;;;;;;;5044043;28;20215;-70
2023/04/19 13:36:21;;;;;;;6.28;3.15;;;;;;;;;;5044366;28;20239;-69
2023/04/19 13:38:47;;;;;;;4.13;2.30;;;;;;;;;;5042508;28;20332;-69
2023/04/19 13:41:12;;;;;;;3.92;2.25;;;;;;;;;;5044456;28;20260;-69
2023/04/19 13:43:38;;;;;;;4.97;2.20;;;;;;;;;;5044218;28;20303;-70
2023/04/19 13:46:03;;;;;;;3.08;2.35;;;;;;;;;;5042452;28;20207;-70
2023/04/19 13:48:29;;;;;;;3.53;2.20;;;;;;;;;;5036413;28;20300;-70
2023/04/19 13:50:55;;;;;;;3.53;2.20;;;;;;;;;;5034939;28;20518;-69
2023/04/19 13:53:21;;;;;;;2.53;2.20;;;;;;;;;;5030751;28;20178;-70
2023/04/19 13:55:47;;;;;;;3.25;2.20;;;;;;;;;;5035741;28;20186;-69
2023/04/19 13:58:12;;;;;;;3.55;2.22;;;;;;;;;;5038304;28;20197;-70
2023/04/19 14:00:38;;;;;;;5.25;2.35;;;;;;;;;;5027827;28;20218;-68
2023/04/19 14:03:03;;;;;;;4.28;2.38;;;;;;;;;;5041623;28;20182;-69
2023/04/19 14:05:29;;;;;;;4.95;2.40;;;;;;;;;;5037240;28;20247;-69
2023/04/19 14:07:55;;;;;;;5.18;2.53;;;;;;;;;;5047894;28;20188;-69
2023/04/19 14:10:20;;;;;;;6.97;2.38;;;;;;;;;;5037861;28;20202;-70
2023/04/19 14:12:46;;;;;;;4.65;3.03;;;;;;;;;;5031474;28;20204;-70
2023/04/19 14:15:12;;;;;;;4.65;2.78;;;;;;;;;;5042293;28;20817;-68
2023/04/19 14:17:37;;;;;;;4.55;2.70;;;;;;;;;;5035492;28;20256;-69
2023/04/19 14:20:04;;;;;;;3.13;2.60;;;;;;;;;;5030808;28;20289;-70
2023/04/19 14:22:30;;;;;;;5.43;2.88;;;;;;;;;;5041171;28;20215;-69
2023/04/19 14:24:56;;;;;;;6.25;2.50;;;;;;;;;;5042409;28;20331;-68
2023/04/19 14:27:21;;;;;;;2.67;2.30;;;;;;;;;;5038100;28;20311;-69
2023/04/19 14:29:46;;;;;;;2.95;2.15;;;;;;;;;;5044231;28;20185;-72
2023/04/19 14:32:13;;;;;;;6.43;2.17;;;;;;;;;;5051213;28;20194;-68
2023/04/19 14:34:39;;;;;;;4.72;2.47;;;;;;;;;;5046883;28;20660;-68
2023/04/19 14:37:04;;;;;;;6.28;2.58;;;;;;;;;;5042524;28;20185;-68